sensor_id;sensor_type;location;lat;lon;timestamp;pressure;altitude;pressure_sealevel;temperature
8362;BMP180;4218;48.326;14.304;2023-02-24T00:01:26;97872.00;;;5.80
8362;BMP180;4218;48.326;14.304;2023-02-24T00:03:54;97868.00;;;5.80
8362;BMP180;4218;48.326;14.304;2023-02-24T00:06:30;97858.00;;;5.80
8362;BMP180;4218;48.326;14.304;2023-02-24T00:09:22;97863.00;;;5.70
8362;BMP180;4218;48.326;14.304;2023-02-24T00:12:07;97867.00;;;5.60
8362;BMP180;4218;48.326;14.304;2023-02-24T00:14:37;97861.00;;;5.50
8362;BMP180;4218;48.326;14.304;2023-02-24T00:17:04;97859.00;;;5.30
8362;BMP180;4218;48.326;14.304;2023-02-24T00:19:32;97856.00;;;5.20
8362;BMP180;4218;48.326;14.304;2023-02-24T00:22:00;97849.00;;;5.00
8362;BMP180;4218;48.326;14.304;2023-02-24T00:24:26;97847.00;;;5.00
8362;BMP180;4218;48.326;14.304;2023-02-24T00:26:53;97845.00;;;5.00
8362;BMP180;4218;48.326;14.304;2023-02-24T00:29:19;97840.00;;;4.90
8362;BMP180;4218;48.326;14.304;2023-02-24T00:31:45;97841.00;;;4.80
8362;BMP180;4218;48.326;14.304;2023-02-24T00:34:11;97850.00;;;4.70
8362;BMP180;4218;48.326;14.304;2023-02-24T00:36:37;97848.00;;;4.60
8362;BMP180;4218;48.326;14.304;2023-02-24T00:39:06;97838.00;;;4.60
8362;BMP180;4218;48.326;14.304;2023-02-24T00:41:41;97845.00;;;4.60
8362;BMP180;4218;48.326;14.304;2023-02-24T00:44:12;97834.00;;;4.60
8362;BMP180;4218;48.326;14.304;2023-02-24T00:46:43;97851.00;;;4.70
8362;BMP180;4218;48.326;14.304;2023-02-24T00:49:17;97842.00;;;4.70
8362;BMP180;4218;48.326;14.304;2023-02-24T00:51:46;97836.00;;;4.80
8362;BMP180;4218;48.326;14.304;2023-02-24T00:54:13;97835.00;;;4.80
8362;BMP180;4218;48.326;14.304;2023-02-24T00:56:45;97834.00;;;4.70
8362;BMP180;4218;48.326;14.304;2023-02-24T00:59:11;97834.00;;;4.70
8362;BMP180;4218;48.326;14.304;2023-02-24T01:01:37;97821.00;;;4.70
8362;BMP180;4218;48.326;14.304;2023-02-24T01:04:05;97821.00;;;4.70
8362;BMP180;4218;48.326;14.304;2023-02-24T01:06:41;97819.00;;;4.70
8362;BMP180;4218;48.326;14.304;2023-02-24T01:09:09;97812.00;;;4.70
8362;BMP180;4218;48.326;14.304;2023-02-24T01:11:39;97805.00;;;4.60
8362;BMP180;4218;48.326;14.304;2023-02-24T01:14:27;97823.00;;;4.60
8362;BMP180;4218;48.326;14.304;2023-02-24T01:16:54;97816.00;;;4.50
8362;BMP180;4218;48.326;14.304;2023-02-24T01:19:25;97819.00;;;4.40
8362;BMP180;4218;48.326;14.304;2023-02-24T01:21:59;97823.00;;;4.40
8362;BMP180;4218;48.326;14.304;2023-02-24T01:24:27;97808.00;;;4.40
8362;BMP180;4218;48.326;14.304;2023-02-24T01:26:53;97809.00;;;4.40
8362;BMP180;4218;48.326;14.304;2023-02-24T01:29:19;97818.00;;;4.40
8362;BMP180;4218;48.326;14.304;2023-02-24T01:31:47;97807.00;;;4.50
8362;BMP180;4218;48.326;14.304;2023-02-24T01:34:14;97794.00;;;4.60
8362;BMP180;4218;48.326;14.304;2023-02-24T01:36:42;97789.00;;;4.70
8362;BMP180;4218;48.326;14.304;2023-02-24T01:39:09;97792.00;;;4.60
8362;BMP180;4218;48.326;14.304;2023-02-24T01:41:37;97799.00;;;4.70
8362;BMP180;4218;48.326;14.304;2023-02-24T01:46:52;97788.00;;;4.80
8362;BMP180;4218;48.326;14.304;2023-02-24T01:51:57;97772.00;;;5.00
8362;BMP180;4218;48.326;14.304;2023-02-24T01:54:29;97775.00;;;5.00
8362;BMP180;4218;48.326;14.304;2023-02-24T01:56:56;97773.00;;;4.90
8362;BMP180;4218;48.326;14.304;2023-02-24T01:59:24;97770.00;;;5.00
8362;BMP180;4218;48.326;14.304;2023-02-24T02:01:54;97769.00;;;5.00
8362;BMP180;4218;48.326;14.304;2023-02-24T02:04:42;97768.00;;;5.00
8362;BMP180;4218;48.326;14.304;2023-02-24T02:07:13;97760.00;;;5.10
8362;BMP180;4218;48.326;14.304;2023-02-24T02:09:40;97746.00;;;5.00
8362;BMP180;4218;48.326;14.304;2023-02-24T02:12:08;97765.00;;;5.00
8362;BMP180;4218;48.326;14.304;2023-02-24T02:14:36;97753.00;;;5.00
8362;BMP180;4218;48.326;14.304;2023-02-24T02:17:23;97765.00;;;4.90
8362;BMP180;4218;48.326;14.304;2023-02-24T02:34:22;97759.00;;;4.60
8362;BMP180;4218;48.326;14.304;2023-02-24T02:36:56;97750.00;;;4.90
8362;BMP180;4218;48.326;14.304;2023-02-24T02:39:53;97748.00;;;4.70
8362;BMP180;4218;48.326;14.304;2023-02-24T02:42:39;97751.00;;;4.60
8362;BMP180;4218;48.326;14.304;2023-02-24T02:45:21;97752.00;;;4.70
8362;BMP180;4218;48.326;14.304;2023-02-24T02:56:00;97738.00;;;4.70
8362;BMP180;4218;48.326;14.304;2023-02-24T02:58:31;97748.00;;;4.60
8362;BMP180;4218;48.326;14.304;2023-02-24T03:01:00;97744.00;;;4.60
8362;BMP180;4218;48.326;14.304;2023-02-24T03:03:49;97745.00;;;4.80
8362;BMP180;4218;48.326;14.304;2023-02-24T03:06:25;97753.00;;;4.70
8362;BMP180;4218;48.326;14.304;2023-02-24T03:09:23;97748.00;;;4.50
8362;BMP180;4218;48.326;14.304;2023-02-24T03:11:55;97735.00;;;4.70
8362;BMP180;4218;48.326;14.304;2023-02-24T03:14:28;97747.00;;;4.70
8362;BMP180;4218;48.326;14.304;2023-02-24T03:16:59;97735.00;;;4.50
8362;BMP180;4218;48.326;14.304;2023-02-24T03:19:31;97745.00;;;4.30
8362;BMP180;4218;48.326;14.304;2023-02-24T03:22:09;97741.00;;;4.00
8362;BMP180;4218;48.326;14.304;2023-02-24T03:24:40;97740.00;;;4.00
8362;BMP180;4218;48.326;14.304;2023-02-24T03:27:20;97742.00;;;4.10
8362;BMP180;4218;48.326;14.304;2023-02-24T03:29:55;97740.00;;;4.10
8362;BMP180;4218;48.326;14.304;2023-02-24T03:32:28;97742.00;;;4.20
8362;BMP180;4218;48.326;14.304;2023-02-24T03:37:26;97738.00;;;4.30
8362;BMP180;4218;48.326;14.304;2023-02-24T03:39:57;97736.00;;;4.40
8362;BMP180;4218;48.326;14.304;2023-02-24T03:42:27;97722.00;;;4.50
8362;BMP180;4218;48.326;14.304;2023-02-24T03:44:54;97734.00;;;4.50
8362;BMP180;4218;48.326;14.304;2023-02-24T03:47:23;97729.00;;;4.40
8362;BMP180;4218;48.326;14.304;2023-02-24T03:49:49;97728.00;;;4.50
8362;BMP180;4218;48.326;14.304;2023-02-24T03:52:43;97715.00;;;4.60
8362;BMP180;4218;48.326;14.304;2023-02-24T03:58:21;97716.00;;;4.70
8362;BMP180;4218;48.326;14.304;2023-02-24T04:01:09;97713.00;;;4.60
8362;BMP180;4218;48.326;14.304;2023-02-24T04:07:36;97713.00;;;4.60
8362;BMP180;4218;48.326;14.304;2023-02-24T04:15:32;97708.00;;;4.40
8362;BMP180;4218;48.326;14.304;2023-02-24T04:18:17;97702.00;;;4.30
8362;BMP180;4218;48.326;14.304;2023-02-24T04:20:45;97704.00;;;4.30
8362;BMP180;4218;48.326;14.304;2023-02-24T04:23:16;97693.00;;;4.30
8362;BMP180;4218;48.326;14.304;2023-02-24T04:25:45;97704.00;;;4.30
8362;BMP180;4218;48.326;14.304;2023-02-24T04:28:12;97689.00;;;4.40
8362;BMP180;4218;48.326;14.304;2023-02-24T04:30:42;97694.00;;;4.50
8362;BMP180;4218;48.326;14.304;2023-02-24T04:33:08;97687.00;;;4.60
8362;BMP180;4218;48.326;14.304;2023-02-24T04:35:34;97676.00;;;4.50
8362;BMP180;4218;48.326;14.304;2023-02-24T04:38:02;97673.00;;;4.50
8362;BMP180;4218;48.326;14.304;2023-02-24T04:40:29;97684.00;;;4.50
8362;BMP180;4218;48.326;14.304;2023-02-24T04:42:55;97684.00;;;4.50
8362;BMP180;4218;48.326;14.304;2023-02-24T04:45:27;97688.00;;;4.50
8362;BMP180;4218;48.326;14.304;2023-02-24T04:47:56;97683.00;;;4.50
8362;BMP180;4218;48.326;14.304;2023-02-24T04:50:27;97681.00;;;4.60
8362;BMP180;4218;48.326;14.304;2023-02-24T04:52:55;97680.00;;;4.40
8362;BMP180;4218;48.326;14.304;2023-02-24T04:55:25;97675.00;;;4.40
8362;BMP180;4218;48.326;14.304;2023-02-24T04:57:55;97669.00;;;4.30
8362;BMP180;4218;48.326;14.304;2023-02-24T05:00:22;97680.00;;;4.40
8362;BMP180;4218;48.326;14.304;2023-02-24T05:02:52;97667.00;;;4.40
8362;BMP180;4218;48.326;14.304;2023-02-24T05:05:19;97663.00;;;4.40
8362;BMP180;4218;48.326;14.304;2023-02-24T05:08:10;97658.00;;;4.50
8362;BMP180;4218;48.326;14.304;2023-02-24T05:10:41;97659.00;;;4.40
8362;BMP180;4218;48.326;14.304;2023-02-24T05:13:12;97647.00;;;4.40
8362;BMP180;4218;48.326;14.304;2023-02-24T05:15:40;97640.00;;;4.40
8362;BMP180;4218;48.326;14.304;2023-02-24T05:18:08;97644.00;;;4.40
8362;BMP180;4218;48.326;14.304;2023-02-24T05:20:40;97634.00;;;4.50
8362;BMP180;4218;48.326;14.304;2023-02-24T05:23:29;97639.00;;;4.60
8362;BMP180;4218;48.326;14.304;2023-02-24T05:26:00;97631.00;;;4.70
8362;BMP180;4218;48.326;14.304;2023-02-24T05:28:26;97623.00;;;4.80
8362;BMP180;4218;48.326;14.304;2023-02-24T05:31:05;97635.00;;;4.70
8362;BMP180;4218;48.326;14.304;2023-02-24T05:33:32;97634.00;;;4.70
8362;BMP180;4218;48.326;14.304;2023-02-24T05:36:02;97621.00;;;4.70
8362;BMP180;4218;48.326;14.304;2023-02-24T05:38:28;97619.00;;;4.60
8362;BMP180;4218;48.326;14.304;2023-02-24T05:40:53;97620.00;;;4.60
8362;BMP180;4218;48.326;14.304;2023-02-24T05:43:29;97610.00;;;4.40
8362;BMP180;4218;48.326;14.304;2023-02-24T05:45:59;97609.00;;;4.40
8362;BMP180;4218;48.326;14.304;2023-02-24T05:48:27;97609.00;;;4.40
8362;BMP180;4218;48.326;14.304;2023-02-24T05:50:52;97626.00;;;4.40
8362;BMP180;4218;48.326;14.304;2023-02-24T05:53:19;97620.00;;;4.50
8362;BMP180;4218;48.326;14.304;2023-02-24T05:55:45;97605.00;;;4.60
8362;BMP180;4218;48.326;14.304;2023-02-24T05:58:10;97607.00;;;4.70
8362;BMP180;4218;48.326;14.304;2023-02-24T06:00:35;97612.00;;;4.80
8362;BMP180;4218;48.326;14.304;2023-02-24T06:03:04;97614.00;;;4.80
8362;BMP180;4218;48.326;14.304;2023-02-24T06:05:51;97619.00;;;4.80
8362;BMP180;4218;48.326;14.304;2023-02-24T06:08:17;97619.00;;;4.80
8362;BMP180;4218;48.326;14.304;2023-02-24T06:10:42;97603.00;;;4.80
8362;BMP180;4218;48.326;14.304;2023-02-24T06:13:10;97609.00;;;4.90
8362;BMP180;4218;48.326;14.304;2023-02-24T06:15:36;97599.00;;;5.00
8362;BMP180;4218;48.326;14.304;2023-02-24T06:18:01;97615.00;;;5.00
8362;BMP180;4218;48.326;14.304;2023-02-24T06:20:28;97614.00;;;5.10
8362;BMP180;4218;48.326;14.304;2023-02-24T06:22:57;97602.00;;;5.20
8362;BMP180;4218;48.326;14.304;2023-02-24T06:25:24;97607.00;;;5.20
8362;BMP180;4218;48.326;14.304;2023-02-24T06:27:51;97592.00;;;5.40
8362;BMP180;4218;48.326;14.304;2023-02-24T06:30:20;97613.00;;;5.30
8362;BMP180;4218;48.326;14.304;2023-02-24T06:32:46;97603.00;;;5.20
8362;BMP180;4218;48.326;14.304;2023-02-24T06:35:12;97615.00;;;5.20
8362;BMP180;4218;48.326;14.304;2023-02-24T06:37:38;97624.00;;;5.10
8362;BMP180;4218;48.326;14.304;2023-02-24T06:40:04;97623.00;;;5.10
8362;BMP180;4218;48.326;14.304;2023-02-24T06:42:46;97619.00;;;5.10
8362;BMP180;4218;48.326;14.304;2023-02-24T06:45:15;97625.00;;;5.20
8362;BMP180;4218;48.326;14.304;2023-02-24T06:47:41;97622.00;;;5.30
8362;BMP180;4218;48.326;14.304;2023-02-24T06:50:09;97612.00;;;5.40
8362;BMP180;4218;48.326;14.304;2023-02-24T06:52:35;97612.00;;;5.60
8362;BMP180;4218;48.326;14.304;2023-02-24T06:55:01;97612.00;;;5.60
8362;BMP180;4218;48.326;14.304;2023-02-24T06:57:29;97618.00;;;5.60
8362;BMP180;4218;48.326;14.304;2023-02-24T06:59:59;97611.00;;;5.60
8362;BMP180;4218;48.326;14.304;2023-02-24T07:02:25;97627.00;;;5.60
8362;BMP180;4218;48.326;14.304;2023-02-24T07:04:57;97625.00;;;5.80
8362;BMP180;4218;48.326;14.304;2023-02-24T07:07:22;97615.00;;;5.90
8362;BMP180;4218;48.326;14.304;2023-02-24T07:09:48;97620.00;;;6.00
8362;BMP180;4218;48.326;14.304;2023-02-24T07:12:13;97619.00;;;5.90
8362;BMP180;4218;48.326;14.304;2023-02-24T07:14:45;97626.00;;;5.90
8362;BMP180;4218;48.326;14.304;2023-02-24T07:17:16;97617.00;;;6.10
8362;BMP180;4218;48.326;14.304;2023-02-24T07:19:46;97611.00;;;6.30
8362;BMP180;4218;48.326;14.304;2023-02-24T07:22:12;97612.00;;;6.40
8362;BMP180;4218;48.326;14.304;2023-02-24T07:24:40;97604.00;;;6.30
8362;BMP180;4218;48.326;14.304;2023-02-24T07:27:13;97609.00;;;6.10
8362;BMP180;4218;48.326;14.304;2023-02-24T07:29:46;97600.00;;;6.40
8362;BMP180;4218;48.326;14.304;2023-02-24T07:32:14;97608.00;;;6.40
8362;BMP180;4218;48.326;14.304;2023-02-24T07:34:39;97609.00;;;6.40
8362;BMP180;4218;48.326;14.304;2023-02-24T07:37:05;97607.00;;;6.50
8362;BMP180;4218;48.326;14.304;2023-02-24T07:39:34;97606.00;;;6.80
8362;BMP180;4218;48.326;14.304;2023-02-24T07:42:01;97603.00;;;7.00
8362;BMP180;4218;48.326;14.304;2023-02-24T07:44:26;97600.00;;;7.40
8362;BMP180;4218;48.326;14.304;2023-02-24T07:46:53;97603.00;;;7.50
8362;BMP180;4218;48.326;14.304;2023-02-24T07:49:22;97601.00;;;7.50
8362;BMP180;4218;48.326;14.304;2023-02-24T07:51:50;97594.00;;;7.50
8362;BMP180;4218;48.326;14.304;2023-02-24T07:54:23;97587.00;;;7.40
8362;BMP180;4218;48.326;14.304;2023-02-24T07:56:49;97597.00;;;7.60
8362;BMP180;4218;48.326;14.304;2023-02-24T07:59:30;97597.00;;;7.60
8362;BMP180;4218;48.326;14.304;2023-02-24T08:01:56;97576.00;;;7.50
8362;BMP180;4218;48.326;14.304;2023-02-24T08:04:25;97577.00;;;7.50
8362;BMP180;4218;48.326;14.304;2023-02-24T08:06:51;97568.00;;;7.70
8362;BMP180;4218;48.326;14.304;2023-02-24T08:09:22;97573.00;;;7.90
8362;BMP180;4218;48.326;14.304;2023-02-24T08:12:20;97575.00;;;7.90
8362;BMP180;4218;48.326;14.304;2023-02-24T08:14:47;97571.00;;;8.10
8362;BMP180;4218;48.326;14.304;2023-02-24T08:17:24;97574.00;;;8.00
8362;BMP180;4218;48.326;14.304;2023-02-24T08:19:52;97568.00;;;8.00
8362;BMP180;4218;48.326;14.304;2023-02-24T08:22:40;97557.00;;;8.00
8362;BMP180;4218;48.326;14.304;2023-02-24T08:25:12;97551.00;;;7.90
8362;BMP180;4218;48.326;14.304;2023-02-24T08:27:43;97553.00;;;7.90
8362;BMP180;4218;48.326;14.304;2023-02-24T08:30:11;97542.00;;;8.00
8362;BMP180;4218;48.326;14.304;2023-02-24T08:32:52;97552.00;;;7.80
8362;BMP180;4218;48.326;14.304;2023-02-24T08:35:27;97548.00;;;7.80
8362;BMP180;4218;48.326;14.304;2023-02-24T08:38:13;97544.00;;;7.80
8362;BMP180;4218;48.326;14.304;2023-02-24T08:40:44;97551.00;;;8.00
8362;BMP180;4218;48.326;14.304;2023-02-24T08:43:22;97536.00;;;8.00
8362;BMP180;4218;48.326;14.304;2023-02-24T08:45:59;97547.00;;;8.00
8362;BMP180;4218;48.326;14.304;2023-02-24T08:48:36;97533.00;;;8.10
8362;BMP180;4218;48.326;14.304;2023-02-24T08:51:44;97526.00;;;7.90
8362;BMP180;4218;48.326;14.304;2023-02-24T08:54:10;97517.00;;;7.90
8362;BMP180;4218;48.326;14.304;2023-02-24T08:56:40;97519.00;;;7.80
8362;BMP180;4218;48.326;14.304;2023-02-24T08:59:14;97523.00;;;7.80
8362;BMP180;4218;48.326;14.304;2023-02-24T09:01:58;97512.00;;;7.90
8362;BMP180;4218;48.326;14.304;2023-02-24T09:07:27;97511.00;;;8.50
8362;BMP180;4218;48.326;14.304;2023-02-24T09:09:54;97523.00;;;8.70
8362;BMP180;4218;48.326;14.304;2023-02-24T09:12:22;97519.00;;;8.60
8362;BMP180;4218;48.326;14.304;2023-02-24T09:15:02;97520.00;;;8.80
8362;BMP180;4218;48.326;14.304;2023-02-24T09:17:29;97528.00;;;8.70
8362;BMP180;4218;48.326;14.304;2023-02-24T09:20:13;97524.00;;;9.00
8362;BMP180;4218;48.326;14.304;2023-02-24T09:22:57;97515.00;;;8.70
8362;BMP180;4218;48.326;14.304;2023-02-24T09:25:36;97527.00;;;8.60
8362;BMP180;4218;48.326;14.304;2023-02-24T09:30:43;97511.00;;;8.60
8362;BMP180;4218;48.326;14.304;2023-02-24T09:33:27;97503.00;;;8.70
8362;BMP180;4218;48.326;14.304;2023-02-24T09:36:00;97514.00;;;9.00
8362;BMP180;4218;48.326;14.304;2023-02-24T09:38:42;97491.00;;;8.90
8362;BMP180;4218;48.326;14.304;2023-02-24T09:44:42;97492.00;;;9.10
8362;BMP180;4218;48.326;14.304;2023-02-24T09:47:32;97495.00;;;9.40
8362;BMP180;4218;48.326;14.304;2023-02-24T09:52:50;97494.00;;;9.70
8362;BMP180;4218;48.326;14.304;2023-02-24T09:55:36;97487.00;;;9.80
8362;BMP180;4218;48.326;14.304;2023-02-24T10:00:58;97495.00;;;10.10
8362;BMP180;4218;48.326;14.304;2023-02-24T10:03:54;97487.00;;;10.00
8362;BMP180;4218;48.326;14.304;2023-02-24T10:06:51;97489.00;;;10.00
8362;BMP180;4218;48.326;14.304;2023-02-24T10:11:53;97478.00;;;10.20
8362;BMP180;4218;48.326;14.304;2023-02-24T10:14:28;97473.00;;;10.10
8362;BMP180;4218;48.326;14.304;2023-02-24T10:16:56;97465.00;;;10.20
8362;BMP180;4218;48.326;14.304;2023-02-24T10:19:41;97474.00;;;10.30
8362;BMP180;4218;48.326;14.304;2023-02-24T10:22:16;97465.00;;;10.30
8362;BMP180;4218;48.326;14.304;2023-02-24T10:24:56;97475.00;;;10.40
8362;BMP180;4218;48.326;14.304;2023-02-24T10:28:02;97471.00;;;10.30
8362;BMP180;4218;48.326;14.304;2023-02-24T10:30:37;97458.00;;;10.40
8362;BMP180;4218;48.326;14.304;2023-02-24T10:33:28;97462.00;;;10.40
8362;BMP180;4218;48.326;14.304;2023-02-24T10:36:11;97455.00;;;10.30
8362;BMP180;4218;48.326;14.304;2023-02-24T10:38:38;97456.00;;;10.50
8362;BMP180;4218;48.326;14.304;2023-02-24T10:41:10;97452.00;;;10.60
8362;BMP180;4218;48.326;14.304;2023-02-24T10:43:35;97441.00;;;10.70
8362;BMP180;4218;48.326;14.304;2023-02-24T10:46:35;97441.00;;;10.70
8362;BMP180;4218;48.326;14.304;2023-02-24T10:49:03;97443.00;;;10.60
8362;BMP180;4218;48.326;14.304;2023-02-24T10:51:41;97426.00;;;10.50
8362;BMP180;4218;48.326;14.304;2023-02-24T10:54:23;97425.00;;;10.60
8362;BMP180;4218;48.326;14.304;2023-02-24T10:57:05;97423.00;;;10.90
8362;BMP180;4218;48.326;14.304;2023-02-24T10:59:47;97405.00;;;10.80
8362;BMP180;4218;48.326;14.304;2023-02-24T11:02:51;97408.00;;;10.80
8362;BMP180;4218;48.326;14.304;2023-02-24T11:05:37;97397.00;;;10.90
8362;BMP180;4218;48.326;14.304;2023-02-24T11:08:17;97397.00;;;10.80
8362;BMP180;4218;48.326;14.304;2023-02-24T11:11:18;97391.00;;;10.90
8362;BMP180;4218;48.326;14.304;2023-02-24T11:13:50;97384.00;;;10.80
8362;BMP180;4218;48.326;14.304;2023-02-24T11:16:47;97380.00;;;11.00
8362;BMP180;4218;48.326;14.304;2023-02-24T11:19:37;97383.00;;;10.90
8362;BMP180;4218;48.326;14.304;2023-02-24T11:22:05;97381.00;;;10.90
8362;BMP180;4218;48.326;14.304;2023-02-24T11:24:35;97366.00;;;10.80
8362;BMP180;4218;48.326;14.304;2023-02-24T11:27:02;97376.00;;;10.80
8362;BMP180;4218;48.326;14.304;2023-02-24T11:32:48;97364.00;;;11.00
8362;BMP180;4218;48.326;14.304;2023-02-24T11:38:01;97355.00;;;10.90
8362;BMP180;4218;48.326;14.304;2023-02-24T11:40:36;97344.00;;;10.80
8362;BMP180;4218;48.326;14.304;2023-02-24T11:43:20;97342.00;;;10.90
8362;BMP180;4218;48.326;14.304;2023-02-24T11:46:12;97333.00;;;10.90
8362;BMP180;4218;48.326;14.304;2023-02-24T11:48:54;97320.00;;;11.10
8362;BMP180;4218;48.326;14.304;2023-02-24T11:51:29;97321.00;;;11.30
8362;BMP180;4218;48.326;14.304;2023-02-24T11:54:06;97322.00;;;11.40
8362;BMP180;4218;48.326;14.304;2023-02-24T11:56:40;97318.00;;;11.30
8362;BMP180;4218;48.326;14.304;2023-02-24T11:59:32;97314.00;;;11.50
8362;BMP180;4218;48.326;14.304;2023-02-24T12:04:57;97306.00;;;11.50
8362;BMP180;4218;48.326;14.304;2023-02-24T12:07:26;97309.00;;;11.30
8362;BMP180;4218;48.326;14.304;2023-02-24T12:09:58;97286.00;;;10.80
8362;BMP180;4218;48.326;14.304;2023-02-24T12:12:38;97293.00;;;10.70
8362;BMP180;4218;48.326;14.304;2023-02-24T12:15:22;97291.00;;;10.70
8362;BMP180;4218;48.326;14.304;2023-02-24T12:20:44;97292.00;;;10.60
8362;BMP180;4218;48.326;14.304;2023-02-24T12:23:29;97292.00;;;10.70
8362;BMP180;4218;48.326;14.304;2023-02-24T12:39:41;97269.00;;;10.00
8362;BMP180;4218;48.326;14.304;2023-02-24T12:47:26;97240.00;;;10.00
8362;BMP180;4218;48.326;14.304;2023-02-24T12:50:11;97238.00;;;10.20
8362;BMP180;4218;48.326;14.304;2023-02-24T12:55:12;97236.00;;;10.40
8362;BMP180;4218;48.326;14.304;2023-02-24T12:57:53;97224.00;;;10.60
8362;BMP180;4218;48.326;14.304;2023-02-24T13:00:27;97216.00;;;10.60
8362;BMP180;4218;48.326;14.304;2023-02-24T13:03:04;97217.00;;;10.80
8362;BMP180;4218;48.326;14.304;2023-02-24T13:05:35;97218.00;;;10.90
8362;BMP180;4218;48.326;14.304;2023-02-24T13:08:23;97218.00;;;11.20
8362;BMP180;4218;48.326;14.304;2023-02-24T13:11:05;97211.00;;;11.10
8362;BMP180;4218;48.326;14.304;2023-02-24T13:13:55;97209.00;;;11.00
8362;BMP180;4218;48.326;14.304;2023-02-24T13:16:31;97201.00;;;11.10
8362;BMP180;4218;48.326;14.304;2023-02-24T13:19:17;97189.00;;;11.10
8362;BMP180;4218;48.326;14.304;2023-02-24T13:22:04;97172.00;;;11.20
8362;BMP180;4218;48.326;14.304;2023-02-24T13:24:30;97189.00;;;11.40
8362;BMP180;4218;48.326;14.304;2023-02-24T13:27:53;97188.00;;;11.50
8362;BMP180;4218;48.326;14.304;2023-02-24T13:29:58;97180.00;;;11.70
8362;BMP180;4218;48.326;14.304;2023-02-24T13:37:50;97164.00;;;11.80
8362;BMP180;4218;48.326;14.304;2023-02-24T13:40:20;97174.00;;;11.80
8362;BMP180;4218;48.326;14.304;2023-02-24T13:45:22;97168.00;;;11.80
8362;BMP180;4218;48.326;14.304;2023-02-24T13:48:01;97157.00;;;11.50
8362;BMP180;4218;48.326;14.304;2023-02-24T14:00:03;97152.00;;;11.20
8362;BMP180;4218;48.326;14.304;2023-02-24T14:02:27;97140.00;;;11.20
8362;BMP180;4218;48.326;14.304;2023-02-24T14:04:57;97134.00;;;11.10
8362;BMP180;4218;48.326;14.304;2023-02-24T14:07:26;97132.00;;;11.00
8362;BMP180;4218;48.326;14.304;2023-02-24T14:09:58;97131.00;;;11.00
8362;BMP180;4218;48.326;14.304;2023-02-24T14:12:34;97119.00;;;10.90
8362;BMP180;4218;48.326;14.304;2023-02-24T14:15:01;97114.00;;;11.00
8362;BMP180;4218;48.326;14.304;2023-02-24T14:17:35;97123.00;;;11.00
8362;BMP180;4218;48.326;14.304;2023-02-24T14:22:49;97111.00;;;10.90
8362;BMP180;4218;48.326;14.304;2023-02-24T14:25:15;97110.00;;;10.90
8362;BMP180;4218;48.326;14.304;2023-02-24T14:27:46;97104.00;;;11.00
8362;BMP180;4218;48.326;14.304;2023-02-24T14:30:33;97101.00;;;11.10
8362;BMP180;4218;48.326;14.304;2023-02-24T14:33:00;97097.00;;;11.10
8362;BMP180;4218;48.326;14.304;2023-02-24T14:35:40;97095.00;;;11.20
8362;BMP180;4218;48.326;14.304;2023-02-24T14:38:06;97082.00;;;11.10
8362;BMP180;4218;48.326;14.304;2023-02-24T14:40:53;97076.00;;;11.10
8362;BMP180;4218;48.326;14.304;2023-02-24T14:43:19;97070.00;;;11.00
8362;BMP180;4218;48.326;14.304;2023-02-24T14:45:51;97074.00;;;10.90
8362;BMP180;4218;48.326;14.304;2023-02-24T14:48:28;97073.00;;;10.90
8362;BMP180;4218;48.326;14.304;2023-02-24T14:51:02;97059.00;;;11.00
8362;BMP180;4218;48.326;14.304;2023-02-24T14:53:30;97069.00;;;10.90
8362;BMP180;4218;48.326;14.304;2023-02-24T14:55:58;97058.00;;;10.90
8362;BMP180;4218;48.326;14.304;2023-02-24T14:59:20;97057.00;;;11.00
8362;BMP180;4218;48.326;14.304;2023-02-24T15:01:32;97063.00;;;11.00
8362;BMP180;4218;48.326;14.304;2023-02-24T15:04:09;97064.00;;;11.00
8362;BMP180;4218;48.326;14.304;2023-02-24T15:06:35;97057.00;;;11.00
8362;BMP180;4218;48.326;14.304;2023-02-24T15:09:20;97035.00;;;10.90
8362;BMP180;4218;48.326;14.304;2023-02-24T15:11:47;97038.00;;;10.90
8362;BMP180;4218;48.326;14.304;2023-02-24T15:14:20;97030.00;;;10.80
8362;BMP180;4218;48.326;14.304;2023-02-24T15:16:50;97028.00;;;10.70
8362;BMP180;4218;48.326;14.304;2023-02-24T15:19:32;97032.00;;;10.50
8362;BMP180;4218;48.326;14.304;2023-02-24T15:21:58;97028.00;;;10.50
8362;BMP180;4218;48.326;14.304;2023-02-24T15:24:27;97011.00;;;10.40
8362;BMP180;4218;48.326;14.304;2023-02-24T15:27:01;97017.00;;;10.30
8362;BMP180;4218;48.326;14.304;2023-02-24T15:29:29;97027.00;;;10.30
8362;BMP180;4218;48.326;14.304;2023-02-24T15:31:57;97033.00;;;10.30
8362;BMP180;4218;48.326;14.304;2023-02-24T15:34:26;97035.00;;;10.30
8362;BMP180;4218;48.326;14.304;2023-02-24T15:36:55;97032.00;;;10.30
8362;BMP180;4218;48.326;14.304;2023-02-24T15:39:26;97025.00;;;10.00
8362;BMP180;4218;48.326;14.304;2023-02-24T15:42:05;97034.00;;;9.60
8362;BMP180;4218;48.326;14.304;2023-02-24T15:44:32;97024.00;;;9.50
8362;BMP180;4218;48.326;14.304;2023-02-24T15:47:00;97029.00;;;9.30
8362;BMP180;4218;48.326;14.304;2023-02-24T15:49:36;97028.00;;;9.10
8362;BMP180;4218;48.326;14.304;2023-02-24T15:52:02;97009.00;;;9.00
8362;BMP180;4218;48.326;14.304;2023-02-24T15:54:35;97012.00;;;8.90
8362;BMP180;4218;48.326;14.304;2023-02-24T15:57:02;97013.00;;;8.80
8362;BMP180;4218;48.326;14.304;2023-02-24T15:59:29;96992.00;;;8.90
8362;BMP180;4218;48.326;14.304;2023-02-24T16:01:55;96989.00;;;8.70
8362;BMP180;4218;48.326;14.304;2023-02-24T16:04:21;96982.00;;;8.70
8362;BMP180;4218;48.326;14.304;2023-02-24T16:06:52;96991.00;;;8.70
8362;BMP180;4218;48.326;14.304;2023-02-24T16:09:34;96973.00;;;8.80
8362;BMP180;4218;48.326;14.304;2023-02-24T16:12:02;96964.00;;;8.90
8362;BMP180;4218;48.326;14.304;2023-02-24T16:14:30;96955.00;;;8.60
8362;BMP180;4218;48.326;14.304;2023-02-24T16:16:57;96979.00;;;8.50
8362;BMP180;4218;48.326;14.304;2023-02-24T16:19:22;96978.00;;;8.40
8362;BMP180;4218;48.326;14.304;2023-02-24T16:21:48;96970.00;;;8.50
8362;BMP180;4218;48.326;14.304;2023-02-24T16:24:13;96962.00;;;8.40
8362;BMP180;4218;48.326;14.304;2023-02-24T16:26:40;96968.00;;;8.40
8362;BMP180;4218;48.326;14.304;2023-02-24T16:29:11;96978.00;;;8.40
8362;BMP180;4218;48.326;14.304;2023-02-24T16:31:38;96959.00;;;8.40
8362;BMP180;4218;48.326;14.304;2023-02-24T16:34:05;96963.00;;;8.40
8362;BMP180;4218;48.326;14.304;2023-02-24T16:36:30;96956.00;;;8.50
8362;BMP180;4218;48.326;14.304;2023-02-24T16:38:56;96964.00;;;8.40
8362;BMP180;4218;48.326;14.304;2023-02-24T16:41:22;96963.00;;;8.50
8362;BMP180;4218;48.326;14.304;2023-02-24T16:43:49;96950.00;;;8.50
8362;BMP180;4218;48.326;14.304;2023-02-24T16:46:17;96961.00;;;8.60
8362;BMP180;4218;48.326;14.304;2023-02-24T16:48:44;96951.00;;;8.60
8362;BMP180;4218;48.326;14.304;2023-02-24T16:51:11;96935.00;;;8.50
8362;BMP180;4218;48.326;14.304;2023-02-24T16:53:38;96937.00;;;8.60
8362;BMP180;4218;48.326;14.304;2023-02-24T16:56:04;96937.00;;;8.40
8362;BMP180;4218;48.326;14.304;2023-02-24T16:58:31;96950.00;;;8.30